Time;durP1;ratioP1;P1;durP2;ratioP2;P2;SDS_P1;SDS_P2;PMS_P1;PMS_P2;Temp;Humidity;BMP_temperature;BMP_pressure;BME280_temperature;BME280_humidity;BME280_pressure;Samples;Min_cycle;Max_cycle;Signal;HPM_P1;HPM_P2
2021/12/23 00:01:04;;;;;;;90.13;26.58;;;;;;;-4.07;100.00;102152.22;5034474;28;20123;-77
2021/12/23 00:03:30;;;;;;;85.55;28.60;;;;;;;-4.21;100.00;102096.91;5069102;28;20448;-78
2021/12/23 00:05:55;;;;;;;73.03;26.02;;;;;;;-4.08;100.00;102131.38;5051279;28;20036;-76
2021/12/23 00:08:21;;;;;;;87.57;28.67;;;;;;;-4.11;100.00;102107.97;5051010;28;20042;-76
2021/12/23 00:10:47;;;;;;;73.57;26.38;;;;;;;-4.05;100.00;102120.84;5051182;28;20512;-76
2021/12/23 00:13:13;;;;;;;74.72;25.85;;;;;;;-4.12;100.00;102082.75;5051533;28;20338;-75
2021/12/23 00:16:00;;;;;;;82.72;27.10;;;;;;;-4.13;100.00;102052.38;5050836;28;20043;-75
2021/12/23 00:23:43;;;;;;;83.88;27.98;;;;;;;-4.26;100.00;101979.66;5069283;28;20054;-76
2021/12/23 00:26:08;;;;;;;102.03;31.15;;;;;;;-4.31;100.00;101951.94;5052260;28;20360;-76
2021/12/23 00:28:34;;;;;;;83.43;26.67;;;;;;;-4.32;100.00;101948.50;5051438;28;20486;-77
2021/12/23 00:31:00;;;;;;;81.88;26.42;;;;;;;-4.38;100.00;101935.59;5068861;28;20135;-77
2021/12/23 00:33:28;;;;;;;85.65;26.38;;;;;;;-4.43;100.00;101947.91;5069075;28;20032;-78
2021/12/23 00:35:54;;;;;;;83.57;29.67;;;;;;;-4.34;100.00;101986.78;5050980;28;20029;-77
2021/12/23 00:38:27;;;;;;;86.63;25.50;;;;;;;-4.30;100.00;101979.75;5068661;28;20036;-76
2021/12/23 00:40:53;;;;;;;89.35;26.73;;;;;;;-4.25;100.00;102020.47;5050656;28;20119;-77
2021/12/23 00:43:20;;;;;;;87.30;26.75;;;;;;;-4.12;100.00;102035.81;5050834;28;20163;-76
2021/12/23 00:45:46;;;;;;;75.88;24.65;;;;;;;-4.20;100.00;101999.50;5050389;28;20052;-76
2021/12/23 00:48:11;;;;;;;79.13;27.55;;;;;;;-4.32;100.00;101963.28;5050637;28;20323;-76
2021/12/23 00:50:37;;;;;;;97.82;27.80;;;;;;;-4.43;100.00;101937.47;5033831;28;20043;-74
2021/12/23 00:53:06;;;;;;;86.13;29.23;;;;;;;-4.18;100.00;101994.25;5068916;28;20028;-75
2021/12/23 00:55:32;;;;;;;83.07;27.70;;;;;;;-4.26;100.00;101963.16;5050028;28;20032;-76
2021/12/23 00:57:59;;;;;;;79.05;28.33;;;;;;;-4.26;100.00;101956.19;5050266;28;20042;-76
2021/12/23 01:00:25;;;;;;;89.75;26.52;;;;;;;-4.14;100.00;101980.25;5033536;28;20094;-76
2021/12/23 01:02:51;;;;;;;82.03;28.30;;;;;;;-4.35;100.00;101903.41;5050529;28;20123;-76
2021/12/23 01:05:21;;;;;;;80.63;26.02;;;;;;;-4.29;100.00;101898.88;5050168;28;20039;-78
2021/12/23 01:07:47;;;;;;;83.13;28.40;;;;;;;-4.40;100.00;101868.75;5049164;28;20110;-76
2021/12/23 01:10:13;;;;;;;;;;;;;;;-4.34;100.00;101884.25;5066630;28;20124;-76
2021/12/23 01:12:47;;;;;;;85.03;26.02;;;;;;;-4.31;100.00;101902.41;5032703;28;20027;-75
2021/12/23 01:15:17;;;;;;;80.53;25.55;;;;;;;-4.13;100.00;101946.28;5033291;28;20029;-76
2021/12/23 01:17:58;;;;;;;81.20;26.55;;;;;;;-4.16;100.00;101924.66;5067654;28;20036;-77
2021/12/23 01:20:29;;;;;;;83.70;25.92;;;;;;;-4.05;100.00;101930.44;5049716;28;20125;-77
2021/12/23 01:22:58;;;;;;;77.53;26.55;;;;;;;-4.18;100.00;101880.34;5049883;28;20024;-77
2021/12/23 01:25:24;;;;;;;86.40;28.13;;;;;;;-4.20;100.00;101857.81;5032739;28;20037;-77
2021/12/23 01:27:50;;;;;;;75.05;27.15;;;;;;;-4.47;100.00;101795.94;5067433;28;20040;-78
2021/12/23 01:30:17;;;;;;;;;;;;;;;-4.23;100.00;101826.63;5050240;28;20036;-77
2021/12/23 01:32:44;;;;;;;74.63;24.63;;;;;;;-4.26;100.00;101833.63;5067472;28;19912;-76
2021/12/23 01:35:10;;;;;;;65.25;24.15;;;;;;;-4.35;100.00;101784.31;5067532;28;20392;-77
2021/12/23 01:37:36;;;;;;;80.60;24.67;;;;;;;-4.42;100.00;101779.31;5049582;28;20031;-77
2021/12/23 01:40:04;;;;;;;87.78;24.77;;;;;;;-4.44;100.00;101768.94;5049511;28;20041;-76
2021/12/23 01:42:29;;;;;;;74.00;27.33;;;;;;;-4.26;100.00;101804.94;5049663;28;20509;-77
2021/12/23 01:44:55;;;;;;;73.30;26.50;;;;;;;-4.31;100.00;101762.50;5049309;28;20059;-76
2021/12/23 01:47:20;;;;;;;73.75;27.83;;;;;;;-4.33;100.00;101764.28;5049608;28;20044;-76
2021/12/23 01:49:46;;;;;;;74.30;25.42;;;;;;;-4.33;100.00;101766.88;5049177;28;20493;-75
2021/12/23 01:52:11;;;;;;;75.40;24.35;;;;;;;-4.33;100.00;101776.44;5067128;28;20375;-77
2021/12/23 01:54:37;;;;;;;64.43;22.67;;;;;;;-4.21;100.00;101783.06;5032658;28;20515;-76
2021/12/23 01:57:04;;;;;;;74.28;23.73;;;;;;;-3.99;100.00;101838.97;5049139;28;20454;-77
2021/12/23 01:59:32;;;;;;;74.72;23.23;;;;;;;-4.16;100.00;101755.13;5049404;28;20032;-76
2021/12/23 02:01:57;;;;;;;68.65;24.67;;;;;;;-4.16;100.00;101731.66;5048824;28;20036;-76
2021/12/23 02:04:22;;;;;;;63.65;24.70;;;;;;;-4.11;100.00;101741.03;5049222;28;20032;-77
2021/12/23 02:06:48;;;;;;;72.00;23.77;;;;;;;-4.27;100.00;101687.63;5049446;28;20112;-77
2021/12/23 02:09:13;;;;;;;73.10;23.30;;;;;;;-4.11;100.00;101695.84;5032172;28;20154;-79
2021/12/23 02:11:39;;;;;;;74.22;25.48;;;;;;;-4.26;100.00;101658.91;5066874;28;20127;-78
2021/12/23 02:14:05;;;;;;;65.15;25.35;;;;;;;-4.21;100.00;101668.31;5032331;28;20089;-77
2021/12/23 02:16:31;;;;;;;61.95;22.23;;;;;;;-4.17;100.00;101672.56;5048930;28;20481;-77
2021/12/23 02:18:56;;;;;;;71.95;26.08;;;;;;;-4.14;100.00;101662.06;5048758;28;20037;-78
2021/12/23 02:21:21;;;;;;;75.32;24.23;;;;;;;-4.08;100.00;101651.41;5048859;28;20462;-77
2021/12/23 02:23:47;;;;;;;71.78;25.17;;;;;;;-4.10;100.00;101614.97;5048553;28;20107;-77
2021/12/23 02:26:12;;;;;;;69.80;24.52;;;;;;;-4.22;100.00;101578.81;5045856;28;20517;-79
2021/12/23 02:28:37;;;;;;;76.85;23.55;;;;;;;-4.23;100.00;101571.06;5031827;28;20075;-76
2021/12/23 02:31:03;;;;;;;80.47;25.65;;;;;;;-4.29;100.00;101551.22;5032064;28;20087;-77
2021/12/23 02:33:29;;;;;;;76.53;27.13;;;;;;;-4.41;100.00;101517.72;5031866;28;20085;-78
2021/12/23 02:35:55;;;;;;;;;;;;;;;-4.23;100.00;101563.25;5048760;28;20039;-76
2021/12/23 02:38:21;;;;;;;70.68;24.60;;;;;;;-4.26;100.00;101557.22;5048300;28;19919;-77
2021/12/23 02:40:47;;;;;;;;;;;;;;;-4.20;100.00;101571.81;5066530;28;20048;-76
2021/12/23 02:43:14;;;;;;;75.95;25.85;;;;;;;-4.23;100.00;101571.06;5048423;28;19913;-77
2021/12/23 02:45:41;;;;;;;74.57;26.90;;;;;;;-4.00;100.00;101618.13;5048149;28;20036;-76
2021/12/23 02:48:19;;;;;;;75.63;27.63;;;;;;;-3.96;100.00;101608.44;5065690;28;20028;-77
2021/12/23 02:50:47;;;;;;;66.63;25.10;;;;;;;-4.00;100.00;101581.63;5048229;28;20060;-77
2021/12/23 02:53:13;;;;;;;62.90;22.65;;;;;;;-4.00;100.00;101559.88;5066309;28;20047;-77
2021/12/23 02:55:39;;;;;;;;;;;;;;;-3.92;100.00;101558.72;5048464;28;20111;-79
2021/12/23 02:58:05;;;;;;;63.22;22.63;;;;;;;-3.93;100.00;101541.38;5065984;28;20346;-76
2021/12/23 03:00:31;;;;;;;;;;;;;;;-4.03;100.00;101480.84;5066262;28;20036;-76
2021/12/23 03:02:57;;;;;;;63.35;21.40;;;;;;;-4.09;100.00;101474.97;5047668;28;19916;-76
2021/12/23 03:05:23;;;;;;;69.38;23.88;;;;;;;-4.21;100.00;101431.91;5031347;28;20037;-76
2021/12/23 03:07:48;;;;;;;66.50;22.00;;;;;;;-4.27;100.00;101412.06;5047757;28;20465;-77
2021/12/23 03:10:14;;;;;;;84.22;23.00;;;;;;;-4.33;100.00;101396.66;5047798;28;20056;-77
2021/12/23 03:12:39;;;;;;;;;;;;;;;-4.16;100.00;101423.94;5048474;28;20312;-76
2021/12/23 03:15:05;;;;;;;;;;;;;;;-4.17;100.00;101416.97;5048272;28;19912;-75
2021/12/23 03:17:31;;;;;;;66.75;21.45;;;;;;;-4.16;100.00;101419.56;5047632;28;19923;-76
2021/12/23 03:19:57;;;;;;;74.20;23.67;;;;;;;-4.22;100.00;101411.06;5047823;28;20111;-76
2021/12/23 03:22:22;;;;;;;62.90;21.95;;;;;;;-4.17;100.00;101417.84;5048129;28;20131;-76
2021/12/23 03:24:48;;;;;;;71.32;24.20;;;;;;;-4.08;100.00;101432.31;5047694;28;20040;-76
2021/12/23 03:27:13;;;;;;;;;;;;;;;-4.11;100.00;101415.03;5048365;28;20040;-75
2021/12/23 03:29:38;;;;;;;69.30;24.08;;;;;;;-4.14;100.00;101407.31;5065493;28;19920;-76
2021/12/23 03:32:04;;;;;;;63.05;23.13;;;;;;;-4.00;100.00;101408.56;5047042;28;20037;-78
2021/12/23 03:34:30;;;;;;;69.78;23.52;;;;;;;-4.03;100.00;101399.09;5047545;28;20036;-77
2021/12/23 03:36:56;;;;;;;56.25;21.65;;;;;;;-4.09;100.00;101374.09;5047624;28;20043;-76
2021/12/23 03:39:21;;;;;;;60.83;22.63;;;;;;;-4.02;100.00;101387.78;5030721;28;20112;-77
2021/12/23 03:41:48;;;;;;;61.80;23.13;;;;;;;-4.04;100.00;101373.94;5031186;28;20078;-76
2021/12/23 03:44:14;;;;;;;66.88;24.52;;;;;;;-4.01;100.00;101366.00;5047205;28;20470;-78
2021/12/23 03:46:39;;;;;;;58.10;20.92;;;;;;;-3.94;100.00;101361.41;5047555;28;20042;-77
2021/12/23 03:49:06;;;;;;;57.72;21.27;;;;;;;-4.03;100.00;101337.38;5047529;28;20132;-77
2021/12/23 03:51:32;;;;;;;71.28;23.48;;;;;;;-4.01;100.00;101332.09;5047407;28;20067;-76
2021/12/23 03:53:58;;;;;;;66.43;23.92;;;;;;;-4.00;100.00;101336.41;5047328;28;20060;-76
2021/12/23 03:56:23;;;;;;;63.47;21.63;;;;;;;-3.98;100.00;101315.47;5031163;28;20122;-75
2021/12/23 03:58:49;;;;;;;56.17;22.90;;;;;;;-4.00;100.00;101293.81;5047324;28;20486;-77
2021/12/23 04:01:15;;;;;;;51.42;20.42;;;;;;;-3.99;100.00;101288.53;5046856;28;20513;-76
2021/12/23 04:03:41;;;;;;;;;;;;;;;-3.97;100.00;101278.06;5047845;28;20040;-76
2021/12/23 04:06:06;;;;;;;63.45;21.65;;;;;;;-4.04;100.00;101270.44;5047671;28;19986;-76
2021/12/23 04:08:32;;;;;;;53.40;19.60;;;;;;;-4.03;100.00;101266.09;5047021;28;20086;-77
2021/12/23 04:10:59;;;;;;;64.22;22.45;;;;;;;-3.94;100.00;101257.91;5047185;28;20040;-75
2021/12/23 04:13:26;;;;;;;57.13;21.90;;;;;;;-3.91;100.00;101276.09;5047003;28;20028;-76
2021/12/23 04:15:52;;;;;;;55.03;20.48;;;;;;;-3.88;100.00;101257.69;5047215;28;20466;-75
2021/12/23 04:18:18;;;;;;;59.05;20.52;;;;;;;-3.89;100.00;101235.09;5047104;28;20032;-75
2021/12/23 04:20:53;;;;;;;66.88;21.40;;;;;;;-3.91;100.00;101205.66;5030692;28;20143;-78
2021/12/23 04:23:24;;;;;;;52.95;19.88;;;;;;;-3.89;100.00;101206.41;5065085;28;20036;-77
2021/12/23 04:25:51;;;;;;;55.60;22.90;;;;;;;-4.03;100.00;101169.56;5047076;28;20498;-75
2021/12/23 04:28:17;;;;;;;58.10;20.60;;;;;;;-4.07;100.00;101165.41;5064729;28;20036;-76
2021/12/23 04:30:43;;;;;;;61.60;21.00;;;;;;;-3.96;100.00;101172.81;5065459;28;20116;-76
2021/12/23 04:33:09;;;;;;;55.85;21.55;;;;;;;-3.90;100.00;101172.56;5047635;28;20151;-75
2021/12/23 04:35:35;;;;;;;57.47;20.20;;;;;;;-3.82;100.00;101174.00;5046706;28;20036;-76
2021/12/23 04:38:01;;;;;;;;;;;;;;;-3.75;100.00;101164.13;5047323;28;20428;-74
2021/12/23 04:40:29;;;;;;;52.63;21.95;;;;;;;-3.82;100.00;101140.06;5046617;28;20015;-76
2021/12/23 04:42:55;;;;;;;56.95;21.08;;;;;;;-3.79;100.00;101135.59;5047114;28;20029;-75
2021/12/23 04:45:20;;;;;;;60.25;23.10;;;;;;;-3.82;100.00;101110.50;5049478;28;20033;-74
2021/12/23 04:47:46;;;;;;;50.72;19.83;;;;;;;-3.91;100.00;101080.44;5050497;28;20039;-76
2021/12/23 04:50:14;;;;;;;56.92;21.25;;;;;;;-3.87;100.00;101086.34;5050409;28;20466;-76
2021/12/23 04:52:40;;;;;;;56.67;22.27;;;;;;;-3.78;100.00;101090.38;5050319;28;20136;-76
2021/12/23 04:55:07;;;;;;;47.55;19.63;;;;;;;-3.92;100.00;101060.44;5068428;28;20390;-76
2021/12/23 04:57:33;;;;;;;53.72;19.45;;;;;;;-3.70;100.00;101093.50;5050313;28;20071;-76
2021/12/23 04:59:58;;;;;;;57.65;21.30;;;;;;;-3.62;100.00;101096.66;5049442;28;20083;-76
2021/12/23 05:02:24;;;;;;;52.40;19.42;;;;;;;-3.55;100.00;101098.09;5048491;28;20078;-73
2021/12/23 05:04:50;;;;;;;54.05;20.95;;;;;;;-3.57;100.00;101079.03;5049023;28;20039;-76
2021/12/23 05:07:17;;;;;;;55.47;22.25;;;;;;;-3.70;100.00;101057.84;5049992;28;20040;-76
2021/12/23 05:09:43;;;;;;;54.80;19.38;;;;;;;-3.54;100.00;101080.66;5049712;28;20115;-76
2021/12/23 05:12:09;;;;;;;59.30;21.92;;;;;;;-3.59;100.00;101059.97;5032647;28;20095;-76
2021/12/23 05:14:34;;;;;;;46.97;18.25;;;;;;;-3.49;100.00;101069.13;5049626;28;20498;-75
2021/12/23 05:17:00;;;;;;;55.63;21.65;;;;;;;-3.45;100.00;101081.13;5067821;28;20098;-76
2021/12/23 05:19:27;;;;;;;52.60;20.05;;;;;;;-3.46;100.00;101055.94;5032846;28;20038;-75
2021/12/23 05:21:52;;;;;;;55.78;20.95;;;;;;;-3.45;100.00;101036.75;5049778;28;20025;-76
2021/12/23 05:24:18;;;;;;;60.33;21.48;;;;;;;-3.44;100.00;101001.91;5067583;28;20456;-76
2021/12/23 05:26:43;;;;;;;53.47;21.23;;;;;;;-3.60;100.00;100974.78;5049963;28;20048;-76
2021/12/23 05:29:11;;;;;;;67.90;20.30;;;;;;;-3.69;100.00;100944.69;5032831;28;20190;-75
2021/12/23 05:31:37;;;;;;;53.17;20.08;;;;;;;-3.48;100.00;100999.50;5049492;28;20131;-75
2021/12/23 05:34:02;;;;;;;51.20;18.55;;;;;;;-3.56;100.00;100963.25;5049251;28;20035;-76
2021/12/23 05:36:27;;;;;;;56.83;21.27;;;;;;;-3.61;100.00;100954.78;5067456;28;20033;-75
2021/12/23 05:38:53;;;;;;;50.08;21.85;;;;;;;-3.47;100.00;100967.25;5049395;28;20066;-76
2021/12/23 05:41:19;;;;;;;52.95;18.88;;;;;;;-3.45;100.00;100978.47;5067685;28;20040;-75
2021/12/23 05:43:44;;;;;;;61.75;21.50;;;;;;;-3.45;100.00;100958.44;5050047;28;20413;-75
2021/12/23 05:46:10;;;;;;;48.00;18.52;;;;;;;-3.43;100.00;100967.03;5033736;28;20032;-76
2021/12/23 05:48:35;;;;;;;48.20;20.48;;;;;;;-3.38;100.00;100950.34;5049673;28;20044;-76
2021/12/23 05:51:00;;;;;;;52.25;21.38;;;;;;;-3.51;100.00;100903.91;5050173;28;20123;-75
2021/12/23 05:53:26;;;;;;;52.13;22.73;;;;;;;-3.60;100.00;100891.25;5033139;28;20076;-75
2021/12/23 05:55:53;;;;;;;66.85;22.83;;;;;;;-3.61;100.00;100911.28;5032558;28;20384;-75
2021/12/23 05:58:19;;;;;;;56.67;23.42;;;;;;;-3.67;100.00;100888.06;5049539;28;20036;-75
2021/12/23 06:00:44;;;;;;;;;;;;;;;-3.59;100.00;100900.78;5049493;28;20048;-76
2021/12/23 06:03:10;;;;;;;60.13;22.80;;;;;;;-3.53;100.00;100910.94;5049240;28;19912;-75
2021/12/23 06:05:35;;;;;;;46.65;20.73;;;;;;;-3.67;100.00;100885.47;5049575;28;20395;-76
2021/12/23 06:08:01;;;;;;;62.00;22.88;;;;;;;-3.67;100.00;100876.78;5049741;28;20028;-77
2021/12/23 06:10:26;;;;;;;78.47;23.48;;;;;;;-3.58;100.00;100896.38;5049407;28;20036;-76
2021/12/23 06:12:53;;;;;;;62.92;22.60;;;;;;;-3.55;100.00;100899.72;5049262;28;20490;-75
2021/12/23 06:15:18;;;;;;;57.58;22.08;;;;;;;-3.70;100.00;100866.47;5049096;28;20032;-76
2021/12/23 06:17:45;;;;;;;58.38;21.45;;;;;;;-3.50;100.00;100918.63;5049510;28;20046;-77
2021/12/23 06:20:12;;;;;;;62.47;23.35;;;;;;;-3.45;100.00;100932.31;5032870;28;20027;-75
2021/12/23 06:22:37;;;;;;;59.45;22.13;;;;;;;-3.46;100.00;100929.81;5032173;28;20037;-76
2021/12/23 06:25:07;;;;;;;66.28;24.60;;;;;;;-3.34;100.00;100951.91;5048463;28;20028;-76
2021/12/23 06:27:33;;;;;;;55.50;22.08;;;;;;;-3.38;100.00;100926.84;5048403;28;20500;-75
2021/12/23 06:29:59;;;;;;;59.28;21.02;;;;;;;-3.52;100.00;100889.13;5048187;28;20515;-75
2021/12/23 06:32:24;;;;;;;51.20;22.00;;;;;;;-3.49;100.00;100882.94;5048538;28;20070;-76
2021/12/23 06:34:50;;;;;;;53.97;21.70;;;;;;;-3.44;100.00;100887.03;5048596;28;20139;-75
2021/12/23 06:37:15;;;;;;;56.47;20.92;;;;;;;-3.54;100.00;100833.53;5049245;28;20032;-74
2021/12/23 06:39:41;;;;;;;61.22;21.15;;;;;;;-3.59;100.00;100814.66;5049364;28;20154;-75
2021/12/23 06:42:07;;;;;;;62.15;20.75;;;;;;;-3.59;100.00;100821.63;5066756;28;20024;-75
2021/12/23 06:44:33;;;;;;;56.60;21.17;;;;;;;-3.52;100.00;100816.06;5049133;28;20035;-75
2021/12/23 06:46:59;;;;;;;57.72;19.73;;;;;;;-3.48;100.00;100855.94;5032401;28;20519;-75
2021/12/23 06:49:26;;;;;;;60.58;22.42;;;;;;;-3.54;100.00;100825.72;5048883;28;20040;-75
2021/12/23 06:51:52;;;;;;;61.25;23.67;;;;;;;-3.65;100.00;100799.28;5048853;28;20040;-74
2021/12/23 06:54:18;;;;;;;55.00;20.52;;;;;;;-3.52;100.00;100836.94;5048768;28;20099;-75
2021/12/23 06:56:46;;;;;;;55.70;21.48;;;;;;;-3.48;100.00;100833.28;5048993;28;20565;-75
2021/12/23 06:59:15;;;;;;;60.55;22.83;;;;;;;-3.53;100.00;100826.59;5048073;28;20043;-74
2021/12/23 07:01:41;;;;;;;62.35;20.90;;;;;;;-3.58;100.00;100805.03;5047575;28;20536;-74
2021/12/23 07:04:12;;;;;;;61.65;22.17;;;;;;;-3.52;100.00;100813.44;5048463;28;20040;-74
2021/12/23 07:06:45;;;;;;;59.97;22.75;;;;;;;-3.47;100.00;100810.63;5065864;28;20032;-75
2021/12/23 07:09:11;;;;;;;64.55;20.70;;;;;;;-3.59;100.00;100777.25;5066654;28;20075;-75
2021/12/23 07:11:37;;;;;;;59.88;24.58;;;;;;;-3.58;100.00;100776.34;5066574;28;20109;-75
2021/12/23 07:14:03;;;;;;;66.32;24.67;;;;;;;-3.56;100.00;100772.72;5032180;28;20047;-74
2021/12/23 07:16:28;;;;;;;61.33;22.60;;;;;;;-3.57;100.00;100772.81;5032135;28;20024;-75
2021/12/23 07:18:54;;;;;;;62.38;23.63;;;;;;;-3.41;100.00;100821.63;5048744;28;20098;-74
2021/12/23 07:21:19;;;;;;;65.53;23.45;;;;;;;-3.52;100.00;100804.78;5048642;28;20048;-75
2021/12/23 07:23:45;;;;;;;62.15;24.25;;;;;;;-3.35;100.00;100850.97;5031882;28;20036;-75
2021/12/23 07:26:10;;;;;;;72.97;25.60;;;;;;;-3.37;100.00;100844.97;5048866;28;20082;-75
2021/12/23 07:28:36;;;;;;;51.90;21.45;;;;;;;-3.46;100.00;100813.16;5032210;28;20109;-75
2021/12/23 07:31:01;;;;;;;58.40;20.42;;;;;;;-3.40;100.00;100833.75;5048833;28;20166;-75
2021/12/23 07:33:27;;;;;;;64.70;23.70;;;;;;;-3.45;100.00;100820.06;5068465;28;20028;-75
2021/12/23 07:35:52;;;;;;;62.40;24.00;;;;;;;-3.45;100.00;100806.19;5042005;28;20024;-77
2021/12/23 07:38:18;;;;;;;59.28;23.30;;;;;;;-3.41;100.00;100819.03;5058391;28;20039;-75
2021/12/23 07:40:44;;;;;;;61.30;21.25;;;;;;;-3.23;100.00;100866.06;5033744;28;20028;-75
2021/12/23 07:43:20;;;;;;;;;;;;;;;-3.29;100.00;100819.38;5068567;28;20032;-75
2021/12/23 07:45:46;;;;;;;65.57;22.98;;;;;;;-3.43;100.00;100766.03;5048107;28;19978;-75
2021/12/23 07:48:12;;;;;;;57.40;23.05;;;;;;;-3.32;100.00;100801.25;5031613;28;20486;-75
2021/12/23 07:50:40;;;;;;;62.83;23.42;;;;;;;-3.32;100.00;100825.59;5047600;28;20033;-75
2021/12/23 07:53:06;;;;;;;63.05;23.33;;;;;;;-3.22;100.00;100829.44;5047155;28;20444;-75
2021/12/23 07:55:31;;;;;;;63.17;22.85;;;;;;;-3.27;100.00;100812.31;5065095;28;20033;-76
2021/12/23 07:57:57;;;;;;;60.92;20.05;;;;;;;-3.20;100.00;100813.72;5059778;28;20405;-75
2021/12/23 08:00:22;;;;;;;56.28;22.17;;;;;;;-3.11;100.00;100836.78;5065425;28;20024;-76
2021/12/23 08:02:48;;;;;;;62.03;22.90;;;;;;;-3.20;100.00;100782.38;5047417;28;20044;-76
2021/12/23 08:05:13;;;;;;;59.50;22.90;;;;;;;-3.17;100.00;100769.16;5028215;28;20025;-76
2021/12/23 08:07:39;;;;;;;64.30;26.13;;;;;;;-3.47;100.00;100694.00;5062649;28;20111;-75
2021/12/23 08:10:05;;;;;;;64.40;21.55;;;;;;;-3.46;100.00;100713.97;5042013;28;20363;-76
2021/12/23 08:12:30;;;;;;;63.15;22.02;;;;;;;-3.31;100.00;100745.47;5025657;28;20445;-76
2021/12/23 08:14:56;;;;;;;59.67;21.92;;;;;;;-3.34;100.00;100733.44;5047222;28;20033;-75
2021/12/23 08:17:21;;;;;;;73.88;22.80;;;;;;;-3.28;100.00;100727.03;5065444;28;20406;-76
2021/12/23 08:19:47;;;;;;;64.07;23.63;;;;;;;-3.34;100.00;100711.69;5050677;28;20036;-76
2021/12/23 08:22:12;;;;;;;61.05;23.50;;;;;;;-3.45;100.00;100676.50;5034185;28;20024;-75
2021/12/23 08:24:38;;;;;;;63.88;24.35;;;;;;;-3.45;100.00;100684.31;5068728;28;20485;-76
2021/12/23 08:27:05;;;;;;;57.80;23.52;;;;;;;-3.38;100.00;100691.88;5068791;28;20454;-76
2021/12/23 08:29:31;;;;;;;68.55;23.13;;;;;;;-3.45;100.00;100666.06;5068408;28;20383;-75
2021/12/23 08:31:56;;;;;;;67.30;26.00;;;;;;;-3.51;100.00;100658.53;5050260;28;20047;-76
2021/12/23 08:34:23;;;;;;;70.03;23.65;;;;;;;-3.32;100.00;100709.84;5029047;28;20114;-76
2021/12/23 08:36:50;;;;;;;64.97;25.48;;;;;;;-3.25;100.00;100755.66;5066828;28;20047;-76
2021/12/23 08:39:17;;;;;;;59.38;23.23;;;;;;;-3.17;100.00;100769.16;5050072;28;20123;-76
2021/12/23 08:41:44;;;;;;;53.35;21.02;;;;;;;-2.97;100.00;100802.16;5050033;28;20036;-75
2021/12/23 08:44:10;;;;;;;64.53;24.02;;;;;;;-2.93;100.00;100785.41;5050179;28;20535;-76
2021/12/23 08:46:35;;;;;;;63.60;24.77;;;;;;;-2.95;100.00;100763.75;5064066;28;20040;-76
2021/12/23 08:49:03;;;;;;;51.17;20.15;;;;;;;-2.88;100.00;100743.38;5047030;28;20049;-76
2021/12/23 08:51:28;;;;;;;57.15;21.67;;;;;;;-3.09;100.00;100687.81;5050272;28;20036;-75
2021/12/23 08:53:54;;;;;;;63.65;22.75;;;;;;;-3.09;100.00;100677.38;5067798;28;20036;-75
2021/12/23 08:56:19;;;;;;;53.08;20.88;;;;;;;-3.08;100.00;100664.25;5060519;28;20035;-75
2021/12/23 08:58:44;;;;;;;55.72;21.85;;;;;;;-2.89;100.00;100687.66;5067019;28;20997;-75
2021/12/23 09:01:11;;;;;;;50.25;20.88;;;;;;;-2.77;100.00;100709.72;5033358;28;20126;-75
2021/12/23 09:03:37;;;;;;;52.35;21.63;;;;;;;-2.67;100.00;100713.56;5049661;28;20036;-76
2021/12/23 09:06:04;;;;;;;55.22;22.92;;;;;;;-2.90;100.00;100645.94;5047579;28;20503;-76
2021/12/23 09:08:30;;;;;;;53.88;21.05;;;;;;;-2.95;100.00;100643.56;5049161;28;20620;-76
2021/12/23 09:10:57;;;;;;;52.38;22.10;;;;;;;-2.87;100.00;100651.00;5049310;28;20024;-76
2021/12/23 09:13:22;;;;;;;62.47;23.50;;;;;;;-2.91;100.00;100625.97;5049592;28;20066;-76
2021/12/23 09:15:49;;;;;;;50.67;21.42;;;;;;;-2.87;100.00;100641.41;5065459;28;20062;-75
2021/12/23 09:18:14;;;;;;;;;;;;;;;-2.80;100.00;100648.00;5050087;28;20032;-75
2021/12/23 09:20:40;;;;;;;53.75;22.25;;;;;;;-2.86;100.00;100626.56;5062245;28;19912;-75
2021/12/23 09:23:07;;;;;;;56.03;22.65;;;;;;;-2.88;100.00;100616.22;5049675;28;20063;-76
2021/12/23 09:25:34;;;;;;;65.30;22.45;;;;;;;-2.83;100.00;100632.50;5065519;28;20036;-76
2021/12/23 09:33:10;;;;;;;51.23;22.10;;;;;;;-2.56;99.78;100651.09;5066888;28;20040;-76
2021/12/23 09:35:37;;;;;;;57.00;20.45;;;;;;;-2.71;99.57;100610.09;5060534;28;20093;-76
2021/12/23 09:38:03;;;;;;;51.95;21.30;;;;;;;-2.52;99.41;100635.25;5050129;28;20087;-75
2021/12/23 09:40:29;;;;;;;55.08;22.50;;;;;;;-2.49;99.26;100630.69;5053409;28;20067;-76
2021/12/23 09:42:59;;;;;;;55.17;22.33;;;;;;;-2.44;99.16;100628.69;5052476;28;20029;-76
2021/12/23 09:45:25;;;;;;;53.45;22.83;;;;;;;-2.62;98.62;100596.53;5032434;28;20482;-76
2021/12/23 09:47:51;;;;;;;51.65;22.45;;;;;;;-2.58;98.71;100590.19;5048882;28;20036;-76
2021/12/23 09:50:21;;;;;;;55.45;22.77;;;;;;;-2.82;98.54;100544.50;5048559;28;20067;-76
2021/12/23 09:52:50;;;;;;;55.35;22.38;;;;;;;-2.80;98.98;100555.69;5032000;28;20048;-76
2021/12/23 09:55:19;;;;;;;55.67;22.50;;;;;;;-2.59;99.07;100592.91;5044075;28;20459;-76
2021/12/23 09:57:46;;;;;;;54.20;23.13;;;;;;;-2.75;99.32;100535.38;5035931;28;20025;-76
2021/12/23 10:00:12;;;;;;;59.28;22.48;;;;;;;-2.80;99.36;100535.63;5048600;28;20028;-75
2021/12/23 10:02:41;;;;;;;;;;;;;;;-2.63;99.75;100584.38;5047870;28;20471;-76
2021/12/23 10:05:19;;;;;;;58.72;23.92;;;;;;;-2.77;99.88;100552.91;5042510;28;19923;-77
2021/12/23 10:07:46;;;;;;;57.20;22.95;;;;;;;-2.77;99.96;100540.69;5048424;28;20141;-75
2021/12/23 10:10:19;;;;;;;65.05;23.23;;;;;;;-2.64;100.00;100589.72;5044146;28;20028;-77
2021/12/23 10:32:53;;;;;;;58.58;24.08;;;;;;;-2.59;100.00;100520.56;5060970;28;20086;-76
2021/12/23 10:38:29;;;;;;;56.42;22.70;;;;;;;-2.64;100.00;100487.78;5065424;28;20036;-76
2021/12/23 10:40:58;;;;;;;56.95;23.52;;;;;;;-2.58;100.00;100490.88;5044258;28;20048;-76
2021/12/23 10:43:31;;;;;;;53.90;22.83;;;;;;;-2.46;100.00;100514.66;5047492;28;20484;-76
2021/12/23 10:46:04;;;;;;;59.03;22.92;;;;;;;-2.55;100.00;100446.28;5061074;28;20397;-76
2021/12/23 10:48:33;;;;;;;53.90;21.33;;;;;;;-2.43;100.00;100470.91;5047245;28;20452;-76
2021/12/23 10:51:05;;;;;;;54.72;24.58;;;;;;;-2.36;100.00;100469.63;5030947;28;20036;-76
2021/12/23 10:59:14;;;;;;;47.90;21.05;;;;;;;-2.43;100.00;100408.16;5061536;28;20490;-76
2021/12/23 11:02:08;;;;;;;51.13;23.50;;;;;;;-2.38;100.00;100413.94;5048179;28;20494;-75
2021/12/23 11:05:11;;;;;;;71.07;29.45;;;;;;;-2.34;100.00;100398.94;5042719;28;20063;-76
2021/12/23 11:07:52;;;;;;;51.72;21.90;;;;;;;-2.37;100.00;100378.19;5046973;28;20041;-76
2021/12/23 11:10:37;;;;;;;49.58;22.65;;;;;;;-2.40;100.00;100349.59;5055419;28;20045;-76
2021/12/23 11:41:30;;;;;;;52.67;21.65;;;;;;;-1.81;98.23;100285.00;5046369;28;20102;-76
2021/12/23 11:43:58;;;;;;;52.35;22.77;;;;;;;-2.01;98.17;100270.53;5024896;28;20056;-76
2021/12/23 11:46:30;;;;;;;48.15;20.08;;;;;;;-1.90;98.25;100309.13;5038350;28;20109;-76
2021/12/23 11:48:58;;;;;;;49.15;23.67;;;;;;;-1.84;98.38;100324.47;5040309;28;20033;-77
2021/12/23 11:51:32;;;;;;;45.83;19.90;;;;;;;-1.80;98.06;100336.44;5047198;28;20213;-75
2021/12/23 11:53:59;;;;;;;47.30;19.65;;;;;;;-1.64;97.85;100398.31;5064844;28;20165;-76
2021/12/23 11:56:27;;;;;;;42.05;18.30;;;;;;;-1.58;97.58;100377.81;5050176;28;20032;-76
2021/12/23 11:58:57;;;;;;;43.95;19.83;;;;;;;-1.63;97.12;100361.56;5063114;28;20039;-75
2021/12/23 12:01:31;;;;;;;44.28;21.30;;;;;;;-1.67;96.61;100325.19;5049296;28;20025;-76
2021/12/23 12:04:01;;;;;;;44.58;20.27;;;;;;;-1.59;96.52;100336.03;5063366;28;20067;-76
2021/12/23 12:06:40;;;;;;;45.35;22.17;;;;;;;-1.73;96.09;100289.78;5049373;28;20040;-76
2021/12/23 12:09:19;;;;;;;46.53;20.55;;;;;;;-1.78;96.23;100271.75;5050103;28;20040;-77
2021/12/23 12:12:05;;;;;;;42.90;19.40;;;;;;;-1.70;96.37;100290.44;5050415;28;20036;-77
2021/12/23 12:14:38;;;;;;;47.40;20.85;;;;;;;-1.64;96.13;100289.22;5065709;28;20079;-76